sensor_id;sensor_type;location;lat;lon;timestamp;P1;durP1;ratioP1;P2;durP2;ratioP2
72586;SDS011;60621;49.576;11.024;2022-11-04T00:00:11;15.85;;;8.20;;
72586;SDS011;60621;49.576;11.024;2022-11-04T00:01:46;14.45;;;7.85;;
72586;SDS011;60621;49.576;11.024;2022-11-04T00:03:25;12.55;;;7.20;;
72586;SDS011;60621;49.576;11.024;2022-11-04T00:04:48;17.38;;;7.68;;
72586;SDS011;60621;49.576;11.024;2022-11-04T00:06:05;12.82;;;6.88;;
72586;SDS011;60621;49.576;11.024;2022-11-04T00:07:33;13.40;;;7.15;;
72586;SDS011;60621;49.576;11.024;2022-11-04T00:09:11;22.42;;;13.55;;
72586;SDS011;60621;49.576;11.024;2022-11-04T00:10:38;23.85;;;13.45;;
72586;SDS011;60621;49.576;11.024;2022-11-04T00:12:17;16.75;;;9.50;;
72586;SDS011;60621;49.576;11.024;2022-11-04T00:13:44;14.80;;;8.52;;
72586;SDS011;60621;49.576;11.024;2022-11-04T00:14:58;15.15;;;8.68;;
72586;SDS011;60621;49.576;11.024;2022-11-04T00:16:29;15.05;;;8.35;;
72586;SDS011;60621;49.576;11.024;2022-11-04T00:18:06;13.95;;;7.60;;
72586;SDS011;60621;49.576;11.024;2022-11-04T00:19:14;14.60;;;7.93;;
72586;SDS011;60621;49.576;11.024;2022-11-04T00:20:25;12.30;;;7.10;;
72586;SDS011;60621;49.576;11.024;2022-11-04T00:22:01;13.63;;;7.72;;
72586;SDS011;60621;49.576;11.024;2022-11-04T00:23:51;13.45;;;7.68;;
72586;SDS011;60621;49.576;11.024;2022-11-04T00:25:17;14.52;;;7.13;;
72586;SDS011;60621;49.576;11.024;2022-11-04T00:26:59;13.50;;;7.30;;
72586;SDS011;60621;49.576;11.024;2022-11-04T00:28:24;18.13;;;8.65;;
72586;SDS011;60621;49.576;11.024;2022-11-04T00:29:49;16.17;;;7.93;;
72586;SDS011;60621;49.576;11.024;2022-11-04T00:31:02;16.15;;;8.77;;
72586;SDS011;60621;49.576;11.024;2022-11-04T00:32:39;16.45;;;8.30;;
72586;SDS011;60621;49.576;11.024;2022-11-04T00:34:05;13.35;;;8.07;;
72586;SDS011;60621;49.576;11.024;2022-11-04T00:35:21;17.85;;;9.05;;
72586;SDS011;60621;49.576;11.024;2022-11-04T00:36:26;15.07;;;8.23;;
72586;SDS011;60621;49.576;11.024;2022-11-04T00:37:45;16.50;;;8.40;;
72586;SDS011;60621;49.576;11.024;2022-11-04T00:39:17;16.42;;;8.38;;
72586;SDS011;60621;49.576;11.024;2022-11-04T00:41:56;17.67;;;8.52;;
72586;SDS011;60621;49.576;11.024;2022-11-04T00:43:07;15.65;;;8.48;;
72586;SDS011;60621;49.576;11.024;2022-11-04T00:44:27;16.90;;;9.20;;
72586;SDS011;60621;49.576;11.024;2022-11-04T00:45:43;14.52;;;8.77;;
72586;SDS011;60621;49.576;11.024;2022-11-04T00:47:19;18.40;;;9.07;;
72586;SDS011;60621;49.576;11.024;2022-11-04T00:48:38;16.38;;;8.68;;
72586;SDS011;60621;49.576;11.024;2022-11-04T00:49:50;16.08;;;8.52;;
72586;SDS011;60621;49.576;11.024;2022-11-04T00:50:59;16.58;;;7.97;;
72586;SDS011;60621;49.576;11.024;2022-11-04T00:52:26;16.65;;;8.30;;
72586;SDS011;60621;49.576;11.024;2022-11-04T00:53:51;15.25;;;8.27;;
72586;SDS011;60621;49.576;11.024;2022-11-04T00:55:09;15.48;;;8.07;;
72586;SDS011;60621;49.576;11.024;2022-11-04T00:57:50;14.77;;;7.75;;
72586;SDS011;60621;49.576;11.024;2022-11-04T00:59:13;13.85;;;7.72;;
72586;SDS011;60621;49.576;11.024;2022-11-04T01:02:09;19.73;;;7.53;;
72586;SDS011;60621;49.576;11.024;2022-11-04T01:03:25;13.15;;;7.30;;
72586;SDS011;60621;49.576;11.024;2022-11-04T01:04:46;14.48;;;7.22;;
72586;SDS011;60621;49.576;11.024;2022-11-04T01:06:14;12.32;;;7.30;;
72586;SDS011;60621;49.576;11.024;2022-11-04T01:07:34;13.05;;;6.93;;
72586;SDS011;60621;49.576;11.024;2022-11-04T01:09:12;17.85;;;8.13;;
72586;SDS011;60621;49.576;11.024;2022-11-04T01:10:34;13.93;;;7.47;;
72586;SDS011;60621;49.576;11.024;2022-11-04T01:11:53;13.25;;;6.93;;
72586;SDS011;60621;49.576;11.024;2022-11-04T01:13:10;14.77;;;7.47;;
72586;SDS011;60621;49.576;11.024;2022-11-04T01:14:33;13.63;;;6.93;;
72586;SDS011;60621;49.576;11.024;2022-11-04T01:15:51;12.70;;;6.63;;
72586;SDS011;60621;49.576;11.024;2022-11-04T01:17:37;13.68;;;7.47;;
72586;SDS011;60621;49.576;11.024;2022-11-04T01:19:08;11.77;;;6.90;;
72586;SDS011;60621;49.576;11.024;2022-11-04T01:20:24;14.02;;;7.03;;
72586;SDS011;60621;49.576;11.024;2022-11-04T01:23:11;11.13;;;6.30;;
72586;SDS011;60621;49.576;11.024;2022-11-04T01:24:19;11.05;;;6.38;;
72586;SDS011;60621;49.576;11.024;2022-11-04T01:25:30;12.60;;;6.32;;
72586;SDS011;60621;49.576;11.024;2022-11-04T01:26:46;11.30;;;6.00;;
72586;SDS011;60621;49.576;11.024;2022-11-04T01:27:56;11.55;;;6.72;;
72586;SDS011;60621;49.576;11.024;2022-11-04T01:29:22;12.82;;;6.95;;
72586;SDS011;60621;49.576;11.024;2022-11-04T01:30:55;11.23;;;5.82;;
72586;SDS011;60621;49.576;11.024;2022-11-04T01:32:59;12.00;;;6.13;;
72586;SDS011;60621;49.576;11.024;2022-11-04T01:34:06;11.20;;;6.05;;
72586;SDS011;60621;49.576;11.024;2022-11-04T01:35:29;22.42;;;13.13;;
72586;SDS011;60621;49.576;11.024;2022-11-04T01:36:54;18.35;;;10.25;;
72586;SDS011;60621;49.576;11.024;2022-11-04T01:38:17;14.80;;;8.77;;
72586;SDS011;60621;49.576;11.024;2022-11-04T01:39:22;21.45;;;11.40;;
72586;SDS011;60621;49.576;11.024;2022-11-04T01:40:42;16.63;;;9.25;;
72586;SDS011;60621;49.576;11.024;2022-11-04T01:41:49;12.98;;;7.68;;
72586;SDS011;60621;49.576;11.024;2022-11-04T01:43:01;13.63;;;7.68;;
72586;SDS011;60621;49.576;11.024;2022-11-04T01:46:02;11.00;;;5.70;;
72586;SDS011;60621;49.576;11.024;2022-11-04T01:47:17;9.27;;;4.95;;
72586;SDS011;60621;49.576;11.024;2022-11-04T01:48:30;9.65;;;5.10;;
72586;SDS011;60621;49.576;11.024;2022-11-04T01:51:18;8.90;;;4.63;;
72586;SDS011;60621;49.576;11.024;2022-11-04T01:52:35;7.93;;;4.53;;
72586;SDS011;60621;49.576;11.024;2022-11-04T01:53:43;8.43;;;4.72;;
72586;SDS011;60621;49.576;11.024;2022-11-04T01:54:47;8.95;;;4.18;;
72586;SDS011;60621;49.576;11.024;2022-11-04T01:55:51;9.02;;;4.57;;
72586;SDS011;60621;49.576;11.024;2022-11-04T01:57:06;8.88;;;4.40;;
72586;SDS011;60621;49.576;11.024;2022-11-04T01:58:27;8.98;;;4.38;;
72586;SDS011;60621;49.576;11.024;2022-11-04T01:59:57;7.90;;;4.25;;
72586;SDS011;60621;49.576;11.024;2022-11-04T02:03:08;8.00;;;3.38;;
72586;SDS011;60621;49.576;11.024;2022-11-04T02:04:19;6.40;;;3.10;;
72586;SDS011;60621;49.576;11.024;2022-11-04T02:05:41;6.95;;;3.53;;
72586;SDS011;60621;49.576;11.024;2022-11-04T02:07:20;7.28;;;3.22;;
72586;SDS011;60621;49.576;11.024;2022-11-04T02:08:36;5.88;;;2.97;;
72586;SDS011;60621;49.576;11.024;2022-11-04T02:10:14;6.00;;;3.17;;
72586;SDS011;60621;49.576;11.024;2022-11-04T02:11:52;6.38;;;2.63;;
72586;SDS011;60621;49.576;11.024;2022-11-04T02:13:38;5.60;;;2.53;;
72586;SDS011;60621;49.576;11.024;2022-11-04T02:14:56;5.75;;;2.50;;
72586;SDS011;60621;49.576;11.024;2022-11-04T02:17:37;5.32;;;2.28;;
72586;SDS011;60621;49.576;11.024;2022-11-04T02:27:25;6.47;;;2.80;;
72586;SDS011;60621;49.576;11.024;2022-11-04T02:30:13;5.20;;;2.38;;
72586;SDS011;60621;49.576;11.024;2022-11-04T02:31:24;4.72;;;2.35;;
72586;SDS011;60621;49.576;11.024;2022-11-04T02:32:55;6.35;;;2.58;;
72586;SDS011;60621;49.576;11.024;2022-11-04T02:34:25;6.13;;;2.20;;
72586;SDS011;60621;49.576;11.024;2022-11-04T02:40:56;5.93;;;1.95;;
72586;SDS011;60621;49.576;11.024;2022-11-04T02:41:58;3.90;;;1.70;;
72586;SDS011;60621;49.576;11.024;2022-11-04T02:43:12;5.72;;;2.30;;
72586;SDS011;60621;49.576;11.024;2022-11-04T02:44:49;5.60;;;2.28;;
72586;SDS011;60621;49.576;11.024;2022-11-04T02:46:04;4.57;;;2.17;;
72586;SDS011;60621;49.576;11.024;2022-11-04T02:47:32;4.05;;;1.90;;
72586;SDS011;60621;49.576;11.024;2022-11-04T02:48:45;3.90;;;1.83;;
72586;SDS011;60621;49.576;11.024;2022-11-04T02:50:08;4.22;;;1.80;;
72586;SDS011;60621;49.576;11.024;2022-11-04T02:51:18;4.47;;;1.60;;
72586;SDS011;60621;49.576;11.024;2022-11-04T02:52:42;3.65;;;1.60;;
72586;SDS011;60621;49.576;11.024;2022-11-04T02:54:11;4.00;;;1.60;;
72586;SDS011;60621;49.576;11.024;2022-11-04T02:55:24;5.13;;;1.60;;
72586;SDS011;60621;49.576;11.024;2022-11-04T02:56:30;3.85;;;1.58;;
72586;SDS011;60621;49.576;11.024;2022-11-04T02:57:37;3.90;;;1.60;;
72586;SDS011;60621;49.576;11.024;2022-11-04T02:58:43;5.05;;;1.80;;
72586;SDS011;60621;49.576;11.024;2022-11-04T02:59:51;4.22;;;1.52;;
72586;SDS011;60621;49.576;11.024;2022-11-04T03:01:08;4.28;;;1.52;;
72586;SDS011;60621;49.576;11.024;2022-11-04T03:02:15;4.55;;;1.58;;
72586;SDS011;60621;49.576;11.024;2022-11-04T03:03:21;3.85;;;1.65;;
72586;SDS011;60621;49.576;11.024;2022-11-04T03:04:27;4.07;;;1.70;;
72586;SDS011;60621;49.576;11.024;2022-11-04T03:05:35;3.40;;;1.27;;
72586;SDS011;60621;49.576;11.024;2022-11-04T03:06:39;3.25;;;1.40;;
72586;SDS011;60621;49.576;11.024;2022-11-04T03:07:43;3.35;;;1.40;;
72586;SDS011;60621;49.576;11.024;2022-11-04T03:08:48;4.30;;;1.70;;
72586;SDS011;60621;49.576;11.024;2022-11-04T03:09:54;3.85;;;1.60;;
72586;SDS011;60621;49.576;11.024;2022-11-04T03:11:02;4.70;;;1.50;;
72586;SDS011;60621;49.576;11.024;2022-11-04T03:12:12;4.45;;;1.73;;
72586;SDS011;60621;49.576;11.024;2022-11-04T03:13:21;4.10;;;1.58;;
72586;SDS011;60621;49.576;11.024;2022-11-04T03:14:32;3.88;;;1.70;;
72586;SDS011;60621;49.576;11.024;2022-11-04T03:15:43;4.15;;;1.67;;
72586;SDS011;60621;49.576;11.024;2022-11-04T03:16:50;4.50;;;1.67;;
72586;SDS011;60621;49.576;11.024;2022-11-04T03:20:38;4.50;;;1.60;;
72586;SDS011;60621;49.576;11.024;2022-11-04T03:21:44;4.00;;;1.60;;
72586;SDS011;60621;49.576;11.024;2022-11-04T03:22:53;4.00;;;1.60;;
72586;SDS011;60621;49.576;11.024;2022-11-04T03:24:00;3.28;;;1.25;;
72586;SDS011;60621;49.576;11.024;2022-11-04T03:25:04;3.38;;;1.50;;
72586;SDS011;60621;49.576;11.024;2022-11-04T03:26:51;3.60;;;1.52;;
72586;SDS011;60621;49.576;11.024;2022-11-04T03:28:58;4.03;;;1.40;;
72586;SDS011;60621;49.576;11.024;2022-11-04T03:30:07;4.00;;;1.40;;
72586;SDS011;60621;49.576;11.024;2022-11-04T03:31:18;3.95;;;1.45;;
72586;SDS011;60621;49.576;11.024;2022-11-04T03:33:46;4.13;;;1.63;;
72586;SDS011;60621;49.576;11.024;2022-11-04T03:34:50;4.13;;;1.83;;
72586;SDS011;60621;49.576;11.024;2022-11-04T03:35:52;3.83;;;1.45;;
72586;SDS011;60621;49.576;11.024;2022-11-04T03:36:54;3.70;;;1.50;;
72586;SDS011;60621;49.576;11.024;2022-11-04T03:37:57;3.33;;;1.38;;
72586;SDS011;60621;49.576;11.024;2022-11-04T03:38:58;3.38;;;1.42;;
72586;SDS011;60621;49.576;11.024;2022-11-04T03:40:00;4.13;;;1.60;;
72586;SDS011;60621;49.576;11.024;2022-11-04T03:41:03;3.70;;;1.40;;
72586;SDS011;60621;49.576;11.024;2022-11-04T03:42:11;3.55;;;1.40;;
72586;SDS011;60621;49.576;11.024;2022-11-04T03:43:24;3.70;;;1.58;;
72586;SDS011;60621;49.576;11.024;2022-11-04T03:44:28;3.55;;;1.50;;
72586;SDS011;60621;49.576;11.024;2022-11-04T03:45:30;3.63;;;1.40;;
72586;SDS011;60621;49.576;11.024;2022-11-04T03:46:32;4.97;;;1.92;;
72586;SDS011;60621;49.576;11.024;2022-11-04T03:47:34;3.80;;;1.63;;
72586;SDS011;60621;49.576;11.024;2022-11-04T03:48:37;3.85;;;1.88;;
72586;SDS011;60621;49.576;11.024;2022-11-04T03:49:39;3.60;;;1.55;;
72586;SDS011;60621;49.576;11.024;2022-11-04T03:50:41;3.60;;;1.60;;
72586;SDS011;60621;49.576;11.024;2022-11-04T03:51:44;4.25;;;1.80;;
72586;SDS011;60621;49.576;11.024;2022-11-04T03:52:45;3.53;;;1.48;;
72586;SDS011;60621;49.576;11.024;2022-11-04T03:53:47;3.92;;;1.80;;
72586;SDS011;60621;49.576;11.024;2022-11-04T03:54:48;3.95;;;1.70;;
72586;SDS011;60621;49.576;11.024;2022-11-04T03:56:07;3.88;;;1.55;;
72586;SDS011;60621;49.576;11.024;2022-11-04T03:58:58;4.82;;;1.63;;
72586;SDS011;60621;49.576;11.024;2022-11-04T04:00:13;4.13;;;1.80;;
72586;SDS011;60621;49.576;11.024;2022-11-04T04:01:24;3.83;;;1.75;;
72586;SDS011;60621;49.576;11.024;2022-11-04T04:04:24;5.38;;;2.13;;
72586;SDS011;60621;49.576;11.024;2022-11-04T04:06:33;4.28;;;2.20;;
72586;SDS011;60621;49.576;11.024;2022-11-04T04:07:48;4.80;;;2.17;;
72586;SDS011;60621;49.576;11.024;2022-11-04T04:08:56;4.43;;;2.20;;
72586;SDS011;60621;49.576;11.024;2022-11-04T04:14:38;4.97;;;2.10;;
72586;SDS011;60621;49.576;11.024;2022-11-04T04:16:04;4.05;;;2.10;;
72586;SDS011;60621;49.576;11.024;2022-11-04T04:18:13;4.45;;;1.90;;
72586;SDS011;60621;49.576;11.024;2022-11-04T04:19:20;4.28;;;2.00;;
72586;SDS011;60621;49.576;11.024;2022-11-04T04:20:25;4.70;;;2.38;;
72586;SDS011;60621;49.576;11.024;2022-11-04T04:21:31;4.78;;;2.05;;
72586;SDS011;60621;49.576;11.024;2022-11-04T04:22:42;4.72;;;2.00;;
72586;SDS011;60621;49.576;11.024;2022-11-04T04:23:48;4.05;;;1.85;;
72586;SDS011;60621;49.576;11.024;2022-11-04T04:25:10;3.78;;;1.70;;
72586;SDS011;60621;49.576;11.024;2022-11-04T04:26:33;5.20;;;1.98;;
72586;SDS011;60621;49.576;11.024;2022-11-04T04:27:56;3.78;;;1.70;;
72586;SDS011;60621;49.576;11.024;2022-11-04T04:28:59;4.45;;;1.90;;
72586;SDS011;60621;49.576;11.024;2022-11-04T04:30:05;3.83;;;1.95;;
72586;SDS011;60621;49.576;11.024;2022-11-04T04:31:12;5.10;;;1.83;;
72586;SDS011;60621;49.576;11.024;2022-11-04T04:32:46;3.83;;;1.77;;
72586;SDS011;60621;49.576;11.024;2022-11-04T04:33:50;3.83;;;1.77;;
72586;SDS011;60621;49.576;11.024;2022-11-04T04:34:52;4.35;;;2.00;;
72586;SDS011;60621;49.576;11.024;2022-11-04T04:36:17;4.75;;;1.77;;
72586;SDS011;60621;49.576;11.024;2022-11-04T04:37:20;4.72;;;1.80;;
72586;SDS011;60621;49.576;11.024;2022-11-04T04:38:25;4.70;;;1.83;;
72586;SDS011;60621;49.576;11.024;2022-11-04T04:39:53;4.35;;;2.08;;
72586;SDS011;60621;49.576;11.024;2022-11-04T04:41:25;4.07;;;1.80;;
72586;SDS011;60621;49.576;11.024;2022-11-04T04:42:49;4.68;;;1.88;;
72586;SDS011;60621;49.576;11.024;2022-11-04T04:44:17;3.70;;;1.52;;
72586;SDS011;60621;49.576;11.024;2022-11-04T04:45:42;4.05;;;1.70;;
72586;SDS011;60621;49.576;11.024;2022-11-04T04:46:51;4.07;;;2.03;;
72586;SDS011;60621;49.576;11.024;2022-11-04T04:47:55;4.22;;;1.95;;
72586;SDS011;60621;49.576;11.024;2022-11-04T04:49:03;3.70;;;1.63;;
72586;SDS011;60621;49.576;11.024;2022-11-04T04:50:06;3.78;;;1.70;;
72586;SDS011;60621;49.576;11.024;2022-11-04T04:51:10;3.85;;;1.63;;
72586;SDS011;60621;49.576;11.024;2022-11-04T04:52:11;3.17;;;1.42;;
72586;SDS011;60621;49.576;11.024;2022-11-04T04:53:13;3.45;;;1.45;;
72586;SDS011;60621;49.576;11.024;2022-11-04T04:54:15;3.10;;;1.40;;
72586;SDS011;60621;49.576;11.024;2022-11-04T04:55:17;5.65;;;1.65;;
72586;SDS011;60621;49.576;11.024;2022-11-04T04:56:19;4.65;;;1.65;;
72586;SDS011;60621;49.576;11.024;2022-11-04T04:57:20;3.95;;;1.67;;
72586;SDS011;60621;49.576;11.024;2022-11-04T04:58:21;3.50;;;1.67;;
72586;SDS011;60621;49.576;11.024;2022-11-04T04:59:23;4.28;;;1.70;;
72586;SDS011;60621;49.576;11.024;2022-11-04T05:00:25;4.05;;;1.50;;
72586;SDS011;60621;49.576;11.024;2022-11-04T05:01:27;4.93;;;1.70;;
72586;SDS011;60621;49.576;11.024;2022-11-04T05:02:29;3.75;;;1.52;;
72586;SDS011;60621;49.576;11.024;2022-11-04T05:03:30;3.92;;;1.50;;
72586;SDS011;60621;49.576;11.024;2022-11-04T05:04:32;3.63;;;1.55;;
72586;SDS011;60621;49.576;11.024;2022-11-04T05:05:34;3.50;;;1.45;;
72586;SDS011;60621;49.576;11.024;2022-11-04T05:06:35;4.60;;;1.45;;
72586;SDS011;60621;49.576;11.024;2022-11-04T05:07:37;4.18;;;1.60;;
72586;SDS011;60621;49.576;11.024;2022-11-04T05:08:38;3.70;;;1.48;;
72586;SDS011;60621;49.576;11.024;2022-11-04T05:09:40;3.67;;;1.30;;
72586;SDS011;60621;49.576;11.024;2022-11-04T05:10:42;4.63;;;1.80;;
72586;SDS011;60621;49.576;11.024;2022-11-04T05:11:43;3.60;;;1.33;;
72586;SDS011;60621;49.576;11.024;2022-11-04T05:12:46;3.83;;;1.50;;
72586;SDS011;60621;49.576;11.024;2022-11-04T05:14:06;3.83;;;1.60;;
72586;SDS011;60621;49.576;11.024;2022-11-04T05:15:07;4.22;;;1.70;;
72586;SDS011;60621;49.576;11.024;2022-11-04T05:16:09;4.10;;;1.70;;
72586;SDS011;60621;49.576;11.024;2022-11-04T05:17:11;5.55;;;1.98;;
72586;SDS011;60621;49.576;11.024;2022-11-04T05:18:14;3.45;;;1.48;;
72586;SDS011;60621;49.576;11.024;2022-11-04T05:19:15;3.45;;;1.30;;
72586;SDS011;60621;49.576;11.024;2022-11-04T05:20:17;3.75;;;1.65;;
72586;SDS011;60621;49.576;11.024;2022-11-04T05:21:18;4.13;;;1.73;;
72586;SDS011;60621;49.576;11.024;2022-11-04T05:22:20;3.28;;;1.30;;
72586;SDS011;60621;49.576;11.024;2022-11-04T05:23:22;3.30;;;1.35;;
72586;SDS011;60621;49.576;11.024;2022-11-04T05:24:23;5.40;;;1.88;;
72586;SDS011;60621;49.576;11.024;2022-11-04T05:25:25;3.65;;;1.45;;
72586;SDS011;60621;49.576;11.024;2022-11-04T05:26:27;3.25;;;1.33;;
72586;SDS011;60621;49.576;11.024;2022-11-04T05:27:28;4.03;;;1.58;;
72586;SDS011;60621;49.576;11.024;2022-11-04T05:28:30;3.58;;;1.45;;
72586;SDS011;60621;49.576;11.024;2022-11-04T05:29:32;4.05;;;1.73;;
72586;SDS011;60621;49.576;11.024;2022-11-04T05:30:34;3.90;;;1.50;;
72586;SDS011;60621;49.576;11.024;2022-11-04T05:31:36;4.45;;;1.42;;
72586;SDS011;60621;49.576;11.024;2022-11-04T05:32:37;4.57;;;1.63;;
72586;SDS011;60621;49.576;11.024;2022-11-04T05:33:39;3.30;;;1.40;;
72586;SDS011;60621;49.576;11.024;2022-11-04T05:34:41;3.30;;;1.30;;
72586;SDS011;60621;49.576;11.024;2022-11-04T05:35:43;3.60;;;1.50;;
72586;SDS011;60621;49.576;11.024;2022-11-04T05:36:44;3.00;;;1.35;;
72586;SDS011;60621;49.576;11.024;2022-11-04T05:37:46;3.50;;;1.40;;
72586;SDS011;60621;49.576;11.024;2022-11-04T05:38:51;3.67;;;1.50;;
72586;SDS011;60621;49.576;11.024;2022-11-04T05:39:55;3.55;;;1.58;;
72586;SDS011;60621;49.576;11.024;2022-11-04T05:40:57;3.70;;;1.48;;
72586;SDS011;60621;49.576;11.024;2022-11-04T05:41:59;5.32;;;1.73;;
72586;SDS011;60621;49.576;11.024;2022-11-04T05:43:01;3.60;;;1.42;;
72586;SDS011;60621;49.576;11.024;2022-11-04T05:44:03;5.07;;;1.80;;
72586;SDS011;60621;49.576;11.024;2022-11-04T05:45:05;3.75;;;1.60;;
72586;SDS011;60621;49.576;11.024;2022-11-04T05:46:07;5.47;;;1.80;;
72586;SDS011;60621;49.576;11.024;2022-11-04T05:47:08;4.10;;;1.40;;
72586;SDS011;60621;49.576;11.024;2022-11-04T05:48:10;3.90;;;1.50;;
72586;SDS011;60621;49.576;11.024;2022-11-04T05:49:12;4.22;;;1.60;;
72586;SDS011;60621;49.576;11.024;2022-11-04T05:50:13;4.20;;;1.85;;
72586;SDS011;60621;49.576;11.024;2022-11-04T05:51:15;4.28;;;1.85;;
72586;SDS011;60621;49.576;11.024;2022-11-04T05:52:19;4.45;;;1.83;;
72586;SDS011;60621;49.576;11.024;2022-11-04T05:53:21;3.90;;;1.75;;
72586;SDS011;60621;49.576;11.024;2022-11-04T05:54:23;4.28;;;1.88;;
72586;SDS011;60621;49.576;11.024;2022-11-04T05:55:25;4.05;;;1.90;;
72586;SDS011;60621;49.576;11.024;2022-11-04T05:56:27;3.72;;;1.63;;
72586;SDS011;60621;49.576;11.024;2022-11-04T05:57:29;4.25;;;2.15;;
72586;SDS011;60621;49.576;11.024;2022-11-04T05:58:30;5.10;;;1.50;;
72586;SDS011;60621;49.576;11.024;2022-11-04T05:59:32;4.40;;;1.88;;
72586;SDS011;60621;49.576;11.024;2022-11-04T06:00:34;3.80;;;1.70;;
72586;SDS011;60621;49.576;11.024;2022-11-04T06:01:36;3.20;;;1.30;;
72586;SDS011;60621;49.576;11.024;2022-11-04T06:02:40;6.50;;;2.00;;
72586;SDS011;60621;49.576;11.024;2022-11-04T06:03:41;4.63;;;2.10;;
72586;SDS011;60621;49.576;11.024;2022-11-04T06:04:43;5.63;;;1.80;;
72586;SDS011;60621;49.576;11.024;2022-11-04T06:05:45;4.00;;;1.80;;
72586;SDS011;60621;49.576;11.024;2022-11-04T06:06:46;4.32;;;1.85;;
72586;SDS011;60621;49.576;11.024;2022-11-04T06:07:48;4.25;;;1.65;;
72586;SDS011;60621;49.576;11.024;2022-11-04T06:08:50;4.03;;;1.73;;
72586;SDS011;60621;49.576;11.024;2022-11-04T06:09:52;3.50;;;1.63;;
72586;SDS011;60621;49.576;11.024;2022-11-04T06:10:53;3.58;;;1.73;;
72586;SDS011;60621;49.576;11.024;2022-11-04T06:11:55;4.28;;;1.70;;
72586;SDS011;60621;49.576;11.024;2022-11-04T06:12:56;4.47;;;1.90;;
72586;SDS011;60621;49.576;11.024;2022-11-04T06:13:58;4.15;;;2.00;;
72586;SDS011;60621;49.576;11.024;2022-11-04T06:15:00;4.55;;;1.80;;
72586;SDS011;60621;49.576;11.024;2022-11-04T06:16:01;4.18;;;2.00;;
72586;SDS011;60621;49.576;11.024;2022-11-04T06:17:03;4.35;;;1.80;;
72586;SDS011;60621;49.576;11.024;2022-11-04T06:18:04;3.97;;;1.85;;
72586;SDS011;60621;49.576;11.024;2022-11-04T06:19:06;4.20;;;1.70;;
72586;SDS011;60621;49.576;11.024;2022-11-04T06:20:13;3.65;;;1.70;;
72586;SDS011;60621;49.576;11.024;2022-11-04T06:22:17;4.85;;;1.95;;
72586;SDS011;60621;49.576;11.024;2022-11-04T06:23:20;3.40;;;1.83;;
72586;SDS011;60621;49.576;11.024;2022-11-04T06:24:22;4.43;;;1.60;;
72586;SDS011;60621;49.576;11.024;2022-11-04T06:25:23;10.68;;;2.08;;
72586;SDS011;60621;49.576;11.024;2022-11-04T06:26:31;4.70;;;1.90;;
72586;SDS011;60621;49.576;11.024;2022-11-04T06:27:41;3.58;;;1.67;;
72586;SDS011;60621;49.576;11.024;2022-11-04T06:28:42;4.80;;;2.10;;
72586;SDS011;60621;49.576;11.024;2022-11-04T06:29:44;5.95;;;1.90;;
72586;SDS011;60621;49.576;11.024;2022-11-04T06:30:45;6.20;;;2.00;;
72586;SDS011;60621;49.576;11.024;2022-11-04T06:31:47;3.75;;;1.58;;
72586;SDS011;60621;49.576;11.024;2022-11-04T06:32:48;4.57;;;1.73;;
72586;SDS011;60621;49.576;11.024;2022-11-04T06:33:50;3.63;;;1.50;;
72586;SDS011;60621;49.576;11.024;2022-11-04T06:34:51;4.50;;;1.58;;
72586;SDS011;60621;49.576;11.024;2022-11-04T06:35:56;4.57;;;1.60;;
72586;SDS011;60621;49.576;11.024;2022-11-04T06:36:58;4.93;;;1.65;;
72586;SDS011;60621;49.576;11.024;2022-11-04T06:38:00;3.70;;;1.70;;
72586;SDS011;60621;49.576;11.024;2022-11-04T06:39:02;5.05;;;1.92;;
72586;SDS011;60621;49.576;11.024;2022-11-04T06:40:05;5.22;;;1.90;;
72586;SDS011;60621;49.576;11.024;2022-11-04T06:41:09;5.05;;;1.90;;
72586;SDS011;60621;49.576;11.024;2022-11-04T06:42:13;3.72;;;1.70;;
72586;SDS011;60621;49.576;11.024;2022-11-04T06:43:14;3.63;;;1.88;;
72586;SDS011;60621;49.576;11.024;2022-11-04T06:44:16;5.25;;;1.60;;
72586;SDS011;60621;49.576;11.024;2022-11-04T06:45:17;3.55;;;1.60;;
72586;SDS011;60621;49.576;11.024;2022-11-04T06:46:23;3.40;;;1.38;;
72586;SDS011;60621;49.576;11.024;2022-11-04T06:47:28;3.50;;;1.60;;
72586;SDS011;60621;49.576;11.024;2022-11-04T06:48:30;4.35;;;1.45;;
72586;SDS011;60621;49.576;11.024;2022-11-04T06:49:32;3.85;;;1.67;;
72586;SDS011;60621;49.576;11.024;2022-11-04T06:50:33;5.03;;;1.80;;
72586;SDS011;60621;49.576;11.024;2022-11-04T06:51:35;3.50;;;1.30;;
72586;SDS011;60621;49.576;11.024;2022-11-04T06:52:36;3.40;;;1.40;;
72586;SDS011;60621;49.576;11.024;2022-11-04T06:53:42;5.53;;;1.48;;
72586;SDS011;60621;49.576;11.024;2022-11-04T06:54:44;3.10;;;1.25;;
72586;SDS011;60621;49.576;11.024;2022-11-04T06:55:48;3.92;;;1.50;;
72586;SDS011;60621;49.576;11.024;2022-11-04T06:56:51;3.97;;;1.80;;
72586;SDS011;60621;49.576;11.024;2022-11-04T06:57:53;3.88;;;1.42;;
72586;SDS011;60621;49.576;11.024;2022-11-04T06:58:54;6.95;;;1.48;;
72586;SDS011;60621;49.576;11.024;2022-11-04T06:59:57;3.88;;;1.58;;
72586;SDS011;60621;49.576;11.024;2022-11-04T07:00:59;3.97;;;1.40;;
72586;SDS011;60621;49.576;11.024;2022-11-04T07:02:01;3.95;;;1.55;;
72586;SDS011;60621;49.576;11.024;2022-11-04T07:03:02;4.38;;;1.40;;
72586;SDS011;60621;49.576;11.024;2022-11-04T07:04:04;4.45;;;1.30;;
72586;SDS011;60621;49.576;11.024;2022-11-04T07:05:05;4.65;;;1.63;;
72586;SDS011;60621;49.576;11.024;2022-11-04T07:06:08;4.30;;;1.63;;
72586;SDS011;60621;49.576;11.024;2022-11-04T07:07:11;3.40;;;1.50;;
72586;SDS011;60621;49.576;11.024;2022-11-04T07:08:12;4.35;;;2.05;;
72586;SDS011;60621;49.576;11.024;2022-11-04T07:09:14;4.30;;;1.60;;
72586;SDS011;60621;49.576;11.024;2022-11-04T07:10:16;4.40;;;1.63;;
72586;SDS011;60621;49.576;11.024;2022-11-04T07:11:18;4.60;;;1.70;;
72586;SDS011;60621;49.576;11.024;2022-11-04T07:12:22;3.78;;;1.73;;
72586;SDS011;60621;49.576;11.024;2022-11-04T07:13:24;4.82;;;1.80;;
72586;SDS011;60621;49.576;11.024;2022-11-04T07:14:26;3.95;;;1.80;;
72586;SDS011;60621;49.576;11.024;2022-11-04T07:15:28;4.40;;;1.70;;
72586;SDS011;60621;49.576;11.024;2022-11-04T07:16:29;4.47;;;1.85;;
72586;SDS011;60621;49.576;11.024;2022-11-04T07:17:31;3.53;;;1.60;;
72586;SDS011;60621;49.576;11.024;2022-11-04T07:18:33;5.07;;;2.08;;
72586;SDS011;60621;49.576;11.024;2022-11-04T07:19:34;3.60;;;1.67;;
72586;SDS011;60621;49.576;11.024;2022-11-04T07:20:36;3.80;;;1.90;;
72586;SDS011;60621;49.576;11.024;2022-11-04T07:21:38;5.97;;;1.80;;
72586;SDS011;60621;49.576;11.024;2022-11-04T07:22:40;4.55;;;1.70;;
72586;SDS011;60621;49.576;11.024;2022-11-04T07:23:41;3.70;;;1.70;;
72586;SDS011;60621;49.576;11.024;2022-11-04T07:24:43;3.50;;;1.63;;
72586;SDS011;60621;49.576;11.024;2022-11-04T07:25:45;3.85;;;1.63;;
72586;SDS011;60621;49.576;11.024;2022-11-04T07:26:47;4.68;;;1.70;;
72586;SDS011;60621;49.576;11.024;2022-11-04T07:27:49;4.03;;;1.83;;
72586;SDS011;60621;49.576;11.024;2022-11-04T07:28:50;5.95;;;2.10;;
72586;SDS011;60621;49.576;11.024;2022-11-04T07:29:52;3.67;;;1.70;;
72586;SDS011;60621;49.576;11.024;2022-11-04T07:30:54;4.85;;;1.70;;
72586;SDS011;60621;49.576;11.024;2022-11-04T07:31:57;4.20;;;1.80;;
72586;SDS011;60621;49.576;11.024;2022-11-04T07:32:59;4.57;;;1.70;;
72586;SDS011;60621;49.576;11.024;2022-11-04T07:34:01;3.78;;;1.80;;
72586;SDS011;60621;49.576;11.024;2022-11-04T07:35:03;4.32;;;2.00;;
72586;SDS011;60621;49.576;11.024;2022-11-04T07:36:06;4.07;;;2.00;;
72586;SDS011;60621;49.576;11.024;2022-11-04T07:37:10;4.70;;;1.70;;